• Join FlightAware (Why Join?)
  • Login
  • US Flag 
10:35PM EDT


 

Airport Tracker/Info


-or-


 

Live Flight TrackerFlight Track Log ✈ N479B ✈ 13-Feb-2014 ✈ KCRS - KJAN

Flight Track Log - Related Links

Times and Time Zones

All times are in EST time to prevent confusion due to time zone crossing. See the N479B flight status page for this flight to view local times or setup timezone preferences in your user account.

Time Position Orientation Groundspeed Altitude Reporting Facility
EST Latitude Longitude Course Direction KTS MPH feet Rate Location/Type
03:45PM 32.0097 -96.3075 76° East 222 255 3,400  Level Houston Center
03:46PM 32.0261 -96.2322 76° East 203 234 5,500 1,920 Climbing Houston Center
03:47PM 32.0233 -96.1625 93° East 204 235 7,400 1,680 Climbing Houston Center
03:48PM 32.0308 -96.0894 83° East 208 239 9,100 1,560 Climbing Fort Worth Center
03:49PM 32.0369 -96.0186 84° East 217 250 10,700 1,560 Climbing Fort Worth Center
03:50PM 32.0450 -95.9450 83° East 226 260 12,400 1,500 Climbing Fort Worth Center
03:51PM 32.0514 -95.8644 85° East 243 280 13,900 1,500 Climbing Fort Worth Center
03:52PM 32.0592 -95.7828 84° East 249 287 15,600 1,440 Climbing Fort Worth Center
03:53PM 32.0658 -95.7017 84° East 251 289 16,900 1,380 Climbing Fort Worth Center
03:54PM 32.0736 -95.6103 84° East 250 288 18,500 1,380 Climbing Fort Worth Center
03:56PM 32.0806 -95.5281 84° East 251 289 19,800 1,020 Climbing Fort Worth Center
03:57PM 32.0872 -95.4436 85° East 257 296 20,700 960 Climbing Fort Worth Center
03:58PM 32.0975 -95.3361 84° East 272 313 21,900 1,020 Climbing Fort Worth Center
03:59PM 32.1050 -95.2436 85° East 282 325 22,900 960 Climbing Fort Worth Center
04:00PM 32.1131 -95.1517 84° East 282 325 24,000 960 Climbing Fort Worth Center
04:01PM 32.1203 -95.0594 85° East 281 323 25,000 900 Climbing Fort Worth Center
04:02PM 32.1278 -94.9683 84° East 279 321 25,900 780 Climbing Fort Worth Center
04:03PM 32.1367 -94.8744 84° East 285 328 26,700 840 Climbing Fort Worth Center
04:04PM 32.1422 -94.7614 87° East 287 330 27,700 840 Climbing Fort Worth Center
04:05PM 32.1469 -94.6653 87° East 291 335 28,500 600 Climbing Fort Worth Center
04:06PM 32.1525 -94.5681 86° East 296 341 29,000 240 Climbing Fort Worth Center
04:07PM 32.1581 -94.4636 86° East 313 360 29,000  Level Fort Worth Center
04:08PM 32.1647 -94.3489 86° East 342 394 29,000  Level Fort Worth Center
04:09PM 32.1706 -94.2333 87° East 351 404 29,000  Level Fort Worth Center
04:10PM 32.1772 -94.0922 87° East 359 413 29,000  Level Fort Worth Center
04:11PM 32.1828 -93.9758 87° East 355 409 29,000  Level Fort Worth Center
04:12PM 32.1883 -93.8544 87° East 358 412 29,000  Level Fort Worth Center
04:13PM 32.1928 -93.7386 87° East 357 411 29,000  Level Fort Worth Center
04:14PM 32.1989 -93.6225 86° East 356 410 29,000  Level Fort Worth Center
04:15PM 32.2033 -93.5061 87° East 357 411 29,000  Level Fort Worth Center
04:16PM 32.2086 -93.3900 87° East 356 410 29,000  Level Fort Worth Center
04:17PM 32.2136 -93.2728 87° East 359 413 29,000  Level Fort Worth Center
04:18PM 32.2200 -93.1308 87° East 362 417 29,000  Level Fort Worth Center
04:19PM 32.2256 -93.0239 86° East 360 414 29,000  Level Fort Worth Center
04:20PM 32.2317 -92.8825 87° East 359 413 29,000  Level Fort Worth Center
04:21PM 32.2353 -92.7625 88° East 362 417 29,000  Level Fort Worth Center
04:22PM 32.2408 -92.6461 87° East 358 412 29,000  Level Fort Worth Center
04:23PM 32.2428 -92.5344 89° East 361 415 29,000  Level Houston Center
04:24PM 32.2472 -92.4183 87° East 357 411 29,000 -180 Level Houston Center
04:26PM 32.2519 -92.2767 88° East 359 413 28,700 -840 Descending Houston Center
04:27PM 32.2569 -92.1525 87° East 375 432 27,300 -1,500 Descending Houston Center
04:28PM 32.2644 -91.9158 88° East 388 447 24,500 -1,620 Descending Memphis Center
04:29PM 32.2672 -91.8386 88° East 382 440 23,300 -1,800 Descending Houston Center
04:30PM 32.2711 -91.7167 88° East 374 430 21,500 -1,740 Descending Houston Center
04:31PM 32.2756 -91.5969 87° East 367 422 19,800 -1,800 Descending Houston Center
04:32PM 32.3139 -91.4928 66° East 348 400 17,900 -1,800 Descending Houston Center
04:33PM 32.3517 -91.3911 66° East 342 394 16,200 -1,800 Descending Houston Center
04:34PM 32.3967 -91.2697 66° East 336 387 14,200 -1,740 Descending Houston Center
04:35PM 32.4178 -91.2086 68° East 332 382 13,300 -1,440 Descending Fort Worth Center
04:36PM 32.4522 -91.1161 66° East 317 365 11,800 -1,560 Descending Fort Worth Center
04:37PM 32.4761 -91.0500 67° East 314 361 10,600 -1,560 Descending Memphis Center
04:38PM 32.4689 -90.9503 95° East 323 372 9,100 -1,500 Descending Memphis Center
04:39PM 32.4481 -90.8325 102° East 314 361 7,600 -1,260 Descending Memphis Center
04:40PM 32.4317 -90.7394 102° East 303 349 6,600 -960 Descending Memphis Center
04:41PM 32.3989 -90.6572 115° Southeast 299 344 5,600 -960 Descending Memphis Center
04:42PM 32.3536 -90.5781 124° Southeast 294 338 4,600 -780 Descending Memphis Center
04:43PM 32.3122 -90.5006 122° Southeast 289 333 4,000 -300 Descending Memphis Center
04:44PM 32.2672 -90.4147 122° Southeast 276 318 4,000 -60 Level Memphis Center
04:45PM 32.2317 -90.3483 122° Southeast 262 302 3,900  Descending Memphis Center
04:46PM 32.2125 -90.2769 108° East 258 297 4,000  Climbing Memphis Center
04:47PM 32.2081 -90.2064 94° East 232 267 4,000 -300 Level Memphis Center
04:48PM 32.2056 -90.1378 92° East 221 254 3,400 -840 Descending Memphis Center
04:49PM 32.2342 -90.0772 61° Northeast 190 219 2,300 -1,080 Descending Memphis Center
04:50PM 32.2669 -90.0575 27° Northeast 157 181 1,200 -720 Descending Memphis Center
04:51PM 32.2950 -90.0736 334° Northwest 140 161 900 -300 Descending Memphis Center
04:53PM 32.3000 -90.0667 48° Northeast  Level FlightAware Approximate